createdAt,value
2018-02-20T00:01:36.299Z,27.90
2018-02-20T00:04:02.268Z,29.27
2018-02-20T00:06:28.269Z,30.00
2018-02-20T00:08:54.230Z,30.10
2018-02-20T00:11:20.967Z,27.47
2018-02-20T00:13:47.669Z,27.00
2018-02-20T00:16:13.697Z,29.50
2018-02-20T00:18:39.709Z,31.03
2018-02-20T00:21:05.722Z,28.30
2018-02-20T00:23:31.697Z,33.40
2018-02-20T00:25:57.666Z,30.97
2018-02-20T00:28:23.663Z,29.00
2018-02-20T00:30:49.647Z,27.63
2018-02-20T00:33:15.637Z,28.30
2018-02-20T00:35:41.608Z,31.73
2018-02-20T00:38:07.611Z,29.03
2018-02-20T00:40:33.565Z,27.30
2018-02-20T00:42:59.593Z,29.53
2018-02-20T00:45:25.566Z,28.50
2018-02-20T00:47:51.534Z,30.50
2018-02-20T00:50:18.269Z,29.33
2018-02-20T00:52:44.966Z,27.73
2018-02-20T00:55:10.994Z,30.83
2018-02-20T00:57:36.998Z,32.20
2018-02-20T01:00:03.694Z,31.30
2018-02-20T01:02:29.699Z,31.20
2018-02-20T01:04:56.464Z,29.90
2018-02-20T01:07:23.161Z,26.13
2018-02-20T01:09:49.163Z,31.60
2018-02-20T01:12:15.122Z,30.63
2018-02-20T01:14:41.171Z,29.77
2018-02-20T01:17:07.134Z,29.27
2018-02-20T01:19:33.865Z,30.03
2018-02-20T01:21:59.857Z,28.47
2018-02-20T01:24:26.565Z,30.47
2018-02-20T01:26:52.529Z,29.20
2018-02-20T01:29:19.262Z,30.87
2018-02-20T01:31:45.261Z,30.77
2018-02-20T01:34:11.295Z,28.07
2018-02-20T01:36:37.261Z,29.27
2018-02-20T01:39:03.254Z,30.50
2018-02-20T01:41:29.214Z,28.10
2018-02-20T01:43:55.201Z,29.00
2018-02-20T01:46:21.929Z,28.70
2018-02-20T01:48:47.903Z,28.00
2018-02-20T01:51:14.645Z,30.30
2018-02-20T01:53:41.350Z,27.87
2018-02-20T01:56:07.362Z,29.87
2018-02-20T01:58:33.354Z,33.87
2018-02-20T02:00:59.305Z,29.30
2018-02-20T02:03:26.049Z,28.67
2018-02-20T02:05:52.788Z,29.07
2018-02-20T02:08:18.776Z,31.17
2018-02-20T02:10:44.781Z,30.60
2018-02-20T02:13:11.510Z,31.90
2018-02-20T02:15:37.505Z,29.47
2018-02-20T02:18:03.462Z,27.90
2018-02-20T02:20:29.466Z,28.93
2018-02-20T02:22:55.474Z,30.50
2018-02-20T02:25:22.205Z,31.00
2018-02-20T02:27:48.170Z,31.27
2018-02-20T02:30:14.224Z,30.93
2018-02-20T02:32:40.217Z,29.87
2018-02-20T02:35:06.169Z,30.87
2018-02-20T02:37:32.157Z,30.30
2018-02-20T02:39:58.139Z,33.70
2018-02-20T02:42:24.137Z,29.33
2018-02-20T02:44:50.093Z,31.10
2018-02-20T02:47:16.094Z,29.27
2018-02-20T02:49:42.097Z,31.37
2018-02-20T02:52:08.853Z,29.23
2018-02-20T02:54:35.570Z,29.20
2018-02-20T02:57:01.574Z,31.90
2018-02-20T02:59:27.530Z,31.07
2018-02-20T03:01:53.506Z,30.90
2018-02-20T03:04:20.254Z,29.20
2018-02-20T03:06:48.378Z,30.20
2018-02-20T03:09:14.341Z,30.90
2018-02-20T03:11:40.338Z,29.60
2018-02-20T03:14:06.333Z,28.60
2018-02-20T03:16:32.293Z,29.90
2018-02-20T03:18:59.037Z,30.20
2018-02-20T03:21:24.999Z,30.60
2018-02-20T03:23:50.998Z,28.90
2018-02-20T03:26:16.990Z,29.00
2018-02-20T03:28:42.945Z,30.00
2018-02-20T03:31:08.962Z,28.40
2018-02-20T03:33:34.976Z,30.57
2018-02-20T03:36:00.944Z,30.60
2018-02-20T03:38:26.909Z,27.87
2018-02-20T03:40:52.901Z,29.37
2018-02-20T03:43:18.866Z,29.43
2018-02-20T03:45:44.825Z,29.30
2018-02-20T03:48:10.842Z,29.17
2018-02-20T03:50:36.801Z,28.17
2018-02-20T03:53:03.534Z,30.17
2018-02-20T03:55:29.502Z,27.00
2018-02-20T03:57:56.237Z,30.63
2018-02-20T04:00:22.209Z,33.93
2018-02-20T04:02:48.170Z,32.90
2018-02-20T04:05:14.166Z,28.20
2018-02-20T04:07:40.909Z,31.23
2018-02-20T04:10:07.662Z,33.47
2018-02-20T04:12:34.395Z,33.60
2018-02-20T04:15:00.373Z,35.30
2018-02-20T04:17:26.382Z,37.03
2018-02-20T04:19:52.345Z,34.80
2018-02-20T04:22:18.305Z,35.73
2018-02-20T04:24:44.298Z,29.33
2018-02-20T04:27:11.013Z,31.53
2018-02-20T04:29:37.019Z,31.30
2018-02-20T04:32:02.977Z,31.00
2018-02-20T04:34:28.967Z,31.93
2018-02-20T04:36:55.665Z,31.70
2018-02-20T04:39:21.649Z,33.80
2018-02-20T04:41:48.381Z,32.00
2018-02-20T04:44:14.334Z,32.60
2018-02-20T04:46:41.106Z,33.20
2018-02-20T04:49:07.065Z,34.20
2018-02-20T04:51:33.022Z,36.33
2018-02-20T04:53:59.015Z,37.27
2018-02-20T04:56:24.969Z,41.67
2018-02-20T04:58:50.949Z,40.83
2018-02-20T05:01:16.901Z,41.87
2018-02-20T05:03:43.629Z,41.17
2018-02-20T05:06:09.601Z,43.00
2018-02-20T05:08:36.301Z,39.40
2018-02-20T05:11:02.319Z,40.23
2018-02-20T05:13:28.285Z,37.90
2018-02-20T05:15:54.274Z,34.20
2018-02-20T05:18:20.221Z,35.73
2018-02-20T05:20:46.212Z,33.40
2018-02-20T05:23:12.165Z,31.47
2018-02-20T05:25:38.880Z,32.43
2018-02-20T05:28:04.873Z,30.90
2018-02-20T05:30:30.824Z,34.97
2018-02-20T05:32:56.805Z,34.50
2018-02-20T05:35:22.763Z,33.60
2018-02-20T05:37:49.488Z,35.63
2018-02-20T05:40:16.208Z,32.83
2018-02-20T05:42:42.196Z,33.67
2018-02-20T05:45:08.949Z,35.07
2018-02-20T05:47:35.660Z,32.40
2018-02-20T05:50:01.637Z,31.83
2018-02-20T05:52:28.369Z,34.67
2018-02-20T05:54:55.136Z,32.80
2018-02-20T05:57:21.095Z,35.73
2018-02-20T05:59:47.818Z,31.70
2018-02-20T06:02:13.766Z,33.80
2018-02-20T06:04:40.533Z,33.00
2018-02-20T06:07:07.305Z,31.87
2018-02-20T06:09:33.259Z,29.90
2018-02-20T06:11:59.253Z,32.73
2018-02-20T06:14:25.956Z,32.50
2018-02-20T06:16:51.993Z,32.20
2018-02-20T06:19:17.937Z,33.30
2018-02-20T06:21:43.906Z,30.17
2018-02-20T06:24:09.906Z,32.23
2018-02-20T06:26:35.880Z,29.97
2018-02-20T06:29:02.573Z,31.57
2018-02-20T06:31:28.544Z,33.97
2018-02-20T06:33:54.493Z,59.97
2018-02-20T06:36:20.481Z,48.90
2018-02-20T06:38:46.461Z,37.73
2018-02-20T06:41:12.429Z,40.73
2018-02-20T06:43:38.452Z,44.73
2018-02-20T06:46:05.141Z,39.50
2018-02-20T06:48:31.133Z,37.07
2018-02-20T06:50:57.088Z,34.87
2018-02-20T06:53:23.785Z,40.33
2018-02-20T06:55:49.756Z,36.83
2018-02-20T06:58:15.740Z,41.33
2018-02-20T07:00:41.729Z,41.73
2018-02-20T07:03:07.677Z,37.83
2018-02-20T07:05:34.406Z,36.03
2018-02-20T07:08:00.407Z,32.37
2018-02-20T07:10:26.389Z,32.50
2018-02-20T07:12:53.136Z,32.10
2018-02-20T07:15:19.094Z,30.43
2018-02-20T07:17:45.818Z,34.60
2018-02-20T07:20:11.764Z,32.43
2018-02-20T07:22:37.788Z,34.40
2018-02-20T07:25:03.761Z,34.77
2018-02-20T07:27:29.737Z,33.97
2018-02-20T07:29:55.757Z,34.30
2018-02-20T07:32:21.766Z,33.53
2018-02-20T07:34:48.470Z,31.03
2018-02-20T07:37:14.445Z,33.40
2018-02-20T07:39:41.137Z,32.67
2018-02-20T07:42:07.107Z,31.07
2018-02-20T07:44:33.077Z,33.27
2018-02-20T07:46:59.061Z,33.00
2018-02-20T07:49:25.063Z,29.57
2018-02-20T07:51:51.071Z,31.33
2018-02-20T07:54:17.771Z,30.30
2018-02-20T07:56:43.753Z,31.10
2018-02-20T07:59:09.700Z,29.50
2018-02-20T08:01:36.445Z,31.47
2018-02-20T08:04:03.144Z,31.20
2018-02-20T08:06:29.139Z,30.77
2018-02-20T08:08:55.891Z,30.60
2018-02-20T08:11:22.605Z,31.90
2018-02-20T08:13:48.590Z,30.60
2018-02-20T08:16:14.621Z,32.33
2018-02-20T08:18:41.351Z,30.67
2018-02-20T08:21:08.118Z,30.87
2018-02-20T08:23:34.808Z,30.77
2018-02-20T08:26:00.838Z,29.37
2018-02-20T08:28:26.794Z,30.00
2018-02-20T08:30:52.769Z,30.47
2018-02-20T08:33:18.712Z,30.50
2018-02-20T08:35:44.711Z,30.27
2018-02-20T08:38:10.653Z,31.97
2018-02-20T08:40:36.641Z,29.90
2018-02-20T08:43:02.598Z,30.10
2018-02-20T08:45:28.596Z,31.40
2018-02-20T08:47:55.293Z,30.13
2018-02-20T08:50:21.232Z,31.30
2018-02-20T08:52:47.208Z,29.60
2018-02-20T08:55:13.200Z,31.07
2018-02-20T08:57:39.193Z,28.67
2018-02-20T09:00:05.926Z,30.87
2018-02-20T09:02:31.901Z,31.47
2018-02-20T09:04:57.849Z,31.60
2018-02-20T09:07:23.837Z,30.53
2018-02-20T09:09:49.784Z,29.70
2018-02-20T09:12:16.522Z,33.40
2018-02-20T09:14:42.887Z,29.90
2018-02-20T09:17:09.583Z,29.77
2018-02-20T09:19:35.557Z,28.30
2018-02-20T09:22:01.519Z,31.20
2018-02-20T09:24:28.245Z,31.43
2018-02-20T09:26:54.193Z,30.20
2018-02-20T09:29:20.909Z,30.50
2018-02-20T09:31:46.897Z,29.60
2018-02-20T09:34:13.637Z,30.17
2018-02-20T09:36:40.366Z,29.07
2018-02-20T09:39:07.829Z,25.87
2018-02-20T09:41:33.809Z,26.27
2018-02-20T09:44:00.524Z,27.43
2018-02-20T09:46:26.505Z,27.80
2018-02-20T09:48:52.470Z,25.10
2018-02-20T09:51:18.482Z,24.90
2018-02-20T09:53:44.461Z,24.17
2018-02-20T09:56:10.446Z,22.30
2018-02-20T09:58:36.447Z,24.30
2018-02-20T10:01:03.882Z,21.63
2018-02-20T10:03:29.836Z,21.80
2018-02-20T10:05:55.816Z,22.90
2018-02-20T10:08:22.525Z,22.30
2018-02-20T10:10:48.517Z,21.67
2018-02-20T10:13:14.466Z,23.27
2018-02-20T10:15:40.461Z,21.87
2018-02-20T10:18:06.459Z,21.17
2018-02-20T10:20:32.890Z,22.23
2018-02-20T10:22:58.874Z,22.57
2018-02-20T10:25:24.861Z,20.40
2018-02-20T10:27:50.854Z,20.57
2018-02-20T10:30:17.553Z,22.57
2018-02-20T10:32:43.527Z,23.90
2018-02-20T10:35:09.505Z,21.60
2018-02-20T10:37:35.508Z,22.70
2018-02-20T10:40:01.457Z,21.63
2018-02-20T10:42:28.153Z,21.97
2018-02-20T10:44:54.217Z,22.97
2018-02-20T10:47:20.197Z,24.30
2018-02-20T10:49:46.905Z,23.67
2018-02-20T10:52:12.903Z,23.60
2018-02-20T10:54:38.862Z,23.40
2018-02-20T10:57:04.809Z,21.47
2018-02-20T10:59:30.806Z,20.83
2018-02-20T11:01:56.780Z,21.60
2018-02-20T11:04:22.781Z,21.70
2018-02-20T11:06:48.729Z,20.17
2018-02-20T11:09:14.698Z,21.77
2018-02-20T11:11:41.417Z,22.10
2018-02-20T11:14:07.370Z,20.90
2018-02-20T11:16:33.380Z,21.10
2018-02-20T11:18:59.387Z,20.43
2018-02-20T11:21:26.101Z,19.30
2018-02-20T11:23:52.053Z,19.33
2018-02-20T11:26:19.515Z,21.43
2018-02-20T11:28:45.494Z,18.90
2018-02-20T11:31:11.440Z,19.97
2018-02-20T11:33:37.417Z,19.77
2018-02-20T11:36:03.393Z,21.90
2018-02-20T11:38:30.085Z,22.57
2018-02-20T11:40:56.069Z,19.87
2018-02-20T11:43:22.013Z,19.37
2018-02-20T11:45:48.741Z,18.83
2018-02-20T11:48:14.789Z,19.17
2018-02-20T11:50:40.745Z,20.63
2018-02-20T11:53:07.479Z,19.83
2018-02-20T11:55:33.424Z,19.87
2018-02-20T11:58:00.176Z,20.27
2018-02-20T12:00:26.122Z,19.53
2018-02-20T12:02:52.829Z,19.80
2018-02-20T12:05:18.816Z,21.47
2018-02-20T12:07:45.520Z,20.90
2018-02-20T12:10:11.535Z,21.40
2018-02-20T12:12:37.481Z,20.83
2018-02-20T12:15:03.471Z,18.30
2018-02-20T12:17:30.193Z,21.03
2018-02-20T12:19:56.150Z,21.07
2018-02-20T12:22:22.865Z,19.97
2018-02-20T12:24:48.845Z,21.57
2018-02-20T12:27:15.545Z,22.97
2018-02-20T12:29:41.537Z,23.77
2018-02-20T12:32:08.229Z,21.90
2018-02-20T12:34:34.193Z,25.80
2018-02-20T12:37:00.186Z,27.43
2018-02-20T12:39:26.191Z,27.53
2018-02-20T12:41:52.902Z,24.23
2018-02-20T12:44:18.861Z,26.23
2018-02-20T12:46:44.882Z,25.30
2018-02-20T12:49:10.867Z,26.73
2018-02-20T12:51:36.865Z,28.30
2018-02-20T12:54:02.815Z,26.03
2018-02-20T12:56:28.762Z,24.60
2018-02-20T12:58:55.489Z,26.90
2018-02-20T13:01:21.445Z,28.70
2018-02-20T13:03:48.212Z,31.87
2018-02-20T13:06:14.177Z,30.33
2018-02-20T13:08:40.174Z,30.23
2018-02-20T13:11:06.870Z,30.07
2018-02-20T13:13:32.817Z,29.00
2018-02-20T13:15:58.801Z,28.43
2018-02-20T13:18:25.525Z,28.23
2018-02-20T13:20:51.477Z,29.20
2018-02-20T13:23:18.228Z,27.87
2018-02-20T13:25:44.945Z,28.93
2018-02-20T13:28:10.942Z,29.40
2018-02-20T13:30:36.901Z,28.10
2018-02-20T13:33:02.887Z,28.20
2018-02-20T13:35:28.869Z,25.67
2018-02-20T13:37:54.814Z,27.60
2018-02-20T13:40:20.805Z,28.87
2018-02-20T13:42:47.549Z,31.10
2018-02-20T13:45:14.317Z,26.20
2018-02-20T13:47:41.049Z,28.87
2018-02-20T13:50:06.993Z,27.50
2018-02-20T13:52:33.728Z,28.70
2018-02-20T13:54:59.677Z,30.50
2018-02-20T13:57:25.674Z,31.30
2018-02-20T13:59:51.617Z,32.17
2018-02-20T14:02:17.566Z,32.90
2018-02-20T14:04:43.546Z,30.27
2018-02-20T14:07:09.847Z,31.60
2018-02-20T14:09:35.886Z,32.07
2018-02-20T14:12:01.834Z,32.07
2018-02-20T14:14:27.869Z,30.60
2018-02-20T14:16:53.812Z,33.70
2018-02-20T14:19:20.601Z,32.37
2018-02-20T14:21:46.585Z,34.30
2018-02-20T14:24:14.065Z,31.67
2018-02-20T14:26:40.005Z,31.30
2018-02-20T14:29:06.017Z,32.30
2018-02-20T14:31:32.015Z,31.67
2018-02-20T14:33:57.965Z,33.27
2018-02-20T14:36:23.957Z,34.63
2018-02-20T14:38:50.669Z,33.87
2018-02-20T14:41:16.657Z,34.27
2018-02-20T14:43:43.348Z,35.67
2018-02-20T14:46:09.321Z,35.37
2018-02-20T14:48:35.301Z,37.57
2018-02-20T14:51:01.293Z,36.87
2018-02-20T14:53:27.250Z,38.73
2018-02-20T14:55:53.972Z,40.67
2018-02-20T14:58:20.772Z,37.13
2018-02-20T15:00:46.725Z,39.13
2018-02-20T15:03:12.701Z,39.77
2018-02-20T15:05:38.682Z,40.47
2018-02-20T15:08:04.658Z,42.47
2018-02-20T15:10:30.650Z,40.33
2018-02-20T15:12:56.607Z,40.77
2018-02-20T15:15:22.598Z,39.03
2018-02-20T15:17:49.338Z,41.30
2018-02-20T15:20:15.373Z,44.63
2018-02-20T15:22:41.348Z,41.63
2018-02-20T15:25:07.301Z,43.47
2018-02-20T15:27:33.328Z,43.00
2018-02-20T15:29:59.278Z,43.73
2018-02-20T15:32:25.221Z,48.10
2018-02-20T15:34:51.216Z,43.23
2018-02-20T15:37:17.177Z,42.33
2018-02-20T15:39:43.179Z,44.17
2018-02-20T15:42:09.138Z,44.60
2018-02-20T15:44:35.086Z,43.50
2018-02-20T15:47:01.067Z,43.43
2018-02-20T15:49:27.799Z,47.57
2018-02-20T15:51:53.770Z,44.70
2018-02-20T15:54:20.499Z,44.87
2018-02-20T15:56:46.471Z,43.87
2018-02-20T15:59:12.467Z,44.90
2018-02-20T16:01:38.478Z,44.63
2018-02-20T16:04:04.433Z,46.30
2018-02-20T16:06:30.425Z,45.40
2018-02-20T16:08:56.382Z,46.77
2018-02-20T16:11:22.337Z,45.73
2018-02-20T16:13:49.077Z,47.50
2018-02-20T16:16:15.101Z,47.13
2018-02-20T16:18:41.076Z,47.70
2018-02-20T16:21:07.068Z,48.27
2018-02-20T16:23:33.046Z,42.10
2018-02-20T16:25:59.033Z,41.87
2018-02-20T16:28:25.014Z,43.70
2018-02-20T16:30:50.965Z,42.70
2018-02-20T16:33:17.738Z,47.10
2018-02-20T16:35:44.448Z,44.90
2018-02-20T16:38:10.418Z,43.00
2018-02-20T16:40:37.165Z,42.00
2018-02-20T16:43:03.868Z,43.50
2018-02-20T16:45:29.824Z,44.57
2018-02-20T16:47:55.809Z,44.30
2018-02-20T16:50:21.760Z,43.80
2018-02-20T16:52:47.781Z,43.13
2018-02-20T16:55:13.753Z,42.90
2018-02-20T16:57:39.772Z,41.70
2018-02-20T17:00:05.779Z,39.57
2018-02-20T17:02:32.489Z,40.47
2018-02-20T17:04:58.481Z,42.37
2018-02-20T17:07:24.473Z,41.83
2018-02-20T17:09:51.917Z,43.87
2018-02-20T17:12:17.894Z,44.70
2018-02-20T17:14:44.621Z,43.63
2018-02-20T17:17:10.633Z,45.73
2018-02-20T17:19:36.637Z,40.70
2018-02-20T17:22:02.634Z,38.80
2018-02-20T17:24:28.597Z,36.30
2018-02-20T17:26:55.286Z,35.20
2018-02-20T17:29:21.277Z,35.27
2018-02-20T17:31:48.007Z,35.43
2018-02-20T17:34:13.986Z,33.20
2018-02-20T17:36:40.704Z,32.37
2018-02-20T17:39:06.692Z,34.07
2018-02-20T17:41:32.673Z,32.37
2018-02-20T17:43:58.629Z,32.00
2018-02-20T17:46:25.361Z,34.17
2018-02-20T17:48:51.349Z,35.30
2018-02-20T17:51:17.305Z,32.10
2018-02-20T17:53:43.250Z,33.20
2018-02-20T17:56:09.269Z,33.13
2018-02-20T17:58:35.254Z,35.67
2018-02-20T18:01:01.200Z,32.70
2018-02-20T18:03:27.897Z,31.27
2018-02-20T18:05:53.878Z,33.43
2018-02-20T18:08:19.861Z,30.80
2018-02-20T18:10:45.876Z,32.63
2018-02-20T18:13:11.825Z,32.20
2018-02-20T18:15:37.805Z,30.90
2018-02-20T18:18:03.781Z,29.23
2018-02-20T18:20:30.499Z,27.70
2018-02-20T18:22:56.449Z,29.87
2018-02-20T18:25:23.185Z,31.93
2018-02-20T18:27:49.150Z,29.90
2018-02-20T18:30:15.913Z,31.80
2018-02-20T18:32:41.865Z,30.30
2018-02-20T18:35:07.813Z,30.73
2018-02-20T18:37:33.794Z,29.90
2018-02-20T18:39:59.745Z,30.40
2018-02-20T18:42:26.438Z,29.27
2018-02-20T18:44:52.416Z,28.97
2018-02-20T18:47:18.411Z,30.10
2018-02-20T18:49:44.357Z,29.10
2018-02-20T18:52:10.332Z,29.77
2018-02-20T18:54:37.025Z,30.87
2018-02-20T18:57:03.013Z,29.80
2018-02-20T18:59:29.004Z,31.20
2018-02-20T19:01:54.950Z,27.33
2018-02-20T19:04:20.905Z,30.73
2018-02-20T19:06:46.901Z,29.57
2018-02-20T19:09:12.856Z,31.03
2018-02-20T19:11:38.853Z,31.10
2018-02-20T19:14:04.867Z,32.67
2018-02-20T19:16:31.650Z,31.77
2018-02-20T19:18:57.610Z,30.40
2018-02-20T19:21:23.602Z,31.43
2018-02-20T19:23:50.285Z,30.03
2018-02-20T19:26:16.276Z,33.37
2018-02-20T19:28:42.222Z,32.73
2018-02-20T19:31:08.938Z,32.43
2018-02-20T19:33:34.947Z,31.27
2018-02-20T19:36:00.898Z,33.33
2018-02-20T19:38:26.849Z,33.77
2018-02-20T19:40:52.858Z,34.50
2018-02-20T19:43:18.810Z,32.77
2018-02-20T19:45:44.777Z,29.97
2018-02-20T19:48:10.766Z,33.20
2018-02-20T19:50:36.733Z,33.23
2018-02-20T19:53:02.723Z,31.07
2018-02-20T19:55:28.690Z,35.30
2018-02-20T19:57:54.638Z,30.47
2018-02-20T20:00:20.642Z,34.27
2018-02-20T20:02:46.636Z,35.03
2018-02-20T20:05:13.365Z,32.93
2018-02-20T20:07:39.337Z,33.13
2018-02-20T20:10:05.286Z,33.37
2018-02-20T20:12:31.273Z,34.03
2018-02-20T20:14:57.225Z,34.57
2018-02-20T20:17:23.904Z,46.53
2018-02-20T20:19:49.933Z,36.77
2018-02-20T20:22:15.915Z,40.03
2018-02-20T20:24:41.902Z,37.33
2018-02-20T20:27:07.881Z,39.00
2018-02-20T20:29:33.849Z,35.80
2018-02-20T20:32:00.565Z,32.37
2018-02-20T20:34:26.529Z,33.97
2018-02-20T20:36:52.473Z,34.00
2018-02-20T20:39:18.485Z,33.80
2018-02-20T20:41:44.481Z,33.73
2018-02-20T20:44:10.426Z,33.10
2018-02-20T20:46:36.401Z,35.43
2018-02-20T20:49:02.379Z,33.27
2018-02-20T20:51:28.354Z,35.67
2018-02-20T20:53:54.345Z,36.70
2018-02-20T20:56:20.294Z,35.77
2018-02-20T20:58:46.265Z,34.10
2018-02-20T21:01:12.237Z,33.20
2018-02-20T21:03:38.929Z,36.77
2018-02-20T21:06:04.909Z,33.27
2018-02-20T21:08:30.912Z,32.23
2018-02-20T21:10:56.845Z,34.50
2018-02-20T21:13:22.781Z,32.80
2018-02-20T21:15:48.775Z,32.40
2018-02-20T21:18:15.485Z,31.80
2018-02-20T21:20:41.435Z,35.27
2018-02-20T21:23:08.897Z,32.50
2018-02-20T21:25:35.629Z,33.10
2018-02-20T21:28:01.601Z,32.90
2018-02-20T21:30:27.586Z,31.23
2018-02-20T21:32:53.580Z,30.40
2018-02-20T21:35:19.550Z,34.33
2018-02-20T21:37:45.497Z,32.27
2018-02-20T21:40:11.477Z,33.83
2018-02-20T21:42:37.427Z,31.83
2018-02-20T21:45:04.187Z,35.60
2018-02-20T21:47:30.905Z,31.73
2018-02-20T21:49:56.845Z,32.00
2018-02-20T21:52:22.821Z,35.53
2018-02-20T21:54:48.785Z,29.10
2018-02-20T21:57:14.757Z,30.40
2018-02-20T21:59:40.730Z,30.60
2018-02-20T22:02:06.693Z,30.87
2018-02-20T22:04:32.710Z,33.17
2018-02-20T22:06:58.662Z,28.60
2018-02-20T22:09:24.666Z,31.10
2018-02-20T22:11:51.442Z,29.97
2018-02-20T22:14:18.206Z,30.90
2018-02-20T22:16:44.161Z,29.30
2018-02-20T22:19:10.133Z,35.23
2018-02-20T22:21:36.869Z,29.83
2018-02-20T22:24:02.830Z,30.33
2018-02-20T22:26:29.550Z,29.97
2018-02-20T22:28:55.525Z,33.53
2018-02-20T22:31:22.213Z,32.60
2018-02-20T22:33:48.205Z,29.63
2018-02-20T22:36:14.894Z,31.20
2018-02-20T22:38:40.878Z,32.77
2018-02-20T22:41:06.824Z,31.60
2018-02-20T22:43:33.554Z,29.87
2018-02-20T22:46:00.241Z,30.87
2018-02-20T22:48:26.929Z,29.53
2018-02-20T22:50:52.904Z,31.20
2018-02-20T22:53:18.921Z,26.83
2018-02-20T22:55:44.870Z,28.30
2018-02-20T22:58:10.892Z,31.40
2018-02-20T23:00:36.897Z,27.70
2018-02-20T23:03:02.850Z,29.33
2018-02-20T23:05:28.802Z,29.73
2018-02-20T23:07:54.781Z,32.57
2018-02-20T23:10:20.725Z,30.50
2018-02-20T23:12:46.701Z,28.13
2018-02-20T23:15:12.672Z,27.63
2018-02-20T23:17:39.374Z,30.23
2018-02-20T23:20:05.393Z,30.63
2018-02-20T23:22:31.373Z,31.60
2018-02-20T23:24:57.322Z,29.60
2018-02-20T23:27:24.074Z,28.90
2018-02-20T23:29:50.066Z,28.10
2018-02-20T23:32:16.041Z,28.13
2018-02-20T23:34:41.985Z,28.10
2018-02-20T23:37:08.737Z,28.60
2018-02-20T23:39:34.685Z,30.47
2018-02-20T23:42:01.382Z,29.60
2018-02-20T23:44:27.362Z,28.97
2018-02-20T23:46:54.049Z,30.00
2018-02-20T23:49:20.070Z,27.77
2018-02-20T23:51:46.002Z,28.43
2018-02-20T23:54:12.745Z,27.87
2018-02-20T23:56:39.433Z,29.80
2018-02-20T23:59:05.390Z,29.90
